Aviation Digital Data Service (ADDS)

Output produced by METARs form (1312 UTC 16 August 2022)
found at http://aviationweather.gov/metar/data/
 
METAR text: KJOT 161255Z AUTO 04004KT 10SM CLR 20/18 A3011 RMK AO2 T02010181
Conditions at: KJOT (JOLIET , IL, US) observed 1255 UTC 16 August 2022
Temperature: 20.1°C (68°F)
Dewpoint: 18.1°C (65°F) [RH = 88%]
Pressure (altimeter): 30.11 inches Hg (1019.7 mb)
Winds: from the NE (40 degrees) at 5 MPH (4 knots; 2.1 m/s)
Visibility: 10 or more miles (16+ km)
Ceiling: at least 12,000 feet AGL
Clouds: sky clear below 12,000 feet AGL
Weather: automated observation with no human augmentation;
there may or may not be significant weather present at this time